NCAR-RAP Real-Time Weather Data

Output produced by METARs form (10 April 2020  07:22 UTC)
found at http://weather.rap.ucar.edu/surface/
 
KMLI 100652Z AUTO 30012KT 10SM CLR 02/M06 A3007 RMK AO2 SLP188 T00171056
KMLI 100552Z AUTO 30015G21KT 10SM CLR 02/M06 A3007 RMK AO2 SLP186 T00171056 10050 20017 401060017 51013
KMLI 100452Z AUTO 29015G20KT 10SM CLR 02/M06 A3005 RMK AO2 SLP180 T00221061
KMLI 100352Z AUTO 30010G18KT 10SM CLR 02/M06 A3005 RMK AO2 SLP177 T00221061
KMLI 100252Z 32014G20KT 10SM CLR 03/M07 A3003 RMK AO2 SLP173 T00281067 52031
KMLI 100152Z 31015G25KT 10SM CLR 03/M07 A3000 RMK AO2 PK WND 33030/0056 SLP162 T00331067
KMLI 100052Z 30019G29KT 10SM BKN060 04/M07 A2997 RMK AO2 PK WND 34033/0002 SLP153 T00441072
KMLI 092352Z 31019G32KT 10SM CLR 05/M09 A2994 RMK AO2 PK WND 31036/2319 SLP142 60000 T00501089 10094 20050 53021
KMLI 092252Z 31020G33KT 10SM BKN090 07/M09 A2991 RMK AO2 PK WND 31041/2223 SLP130 T00671089
KMLI 092152Z 30022G37KT 10SM FEW055 BKN080 07/M09 A2988 RMK AO2 PK WND 31050/2053 SLP119 T00721089
KMLI 092052Z 30027G37KT 10SM SCT049 BKN060 OVC080 07/M06 A2987 RMK AO2 PK WND 32039/2036 RAE00 SLP119 P0000 60000 T00721056 50008
KMLI 091952Z 32019G39KT 8SM -RA SCT021 SCT030 BKN037 06/M01 A2988 RMK AO2 PK WND 30043/1912 WSHFT 1839 RAB47 SLP121 P0000 T00561006
KMLI 091859Z 32017G27KT 10SM FEW036 BKN045 BKN055 07/M03 A2986 RMK AO2 PK WND 32027/1857 WSHFT 1839 T00671028
KMLI 091852Z 33017G31KT 10SM SCT047 BKN055 08/M03 A2986 RMK AO2 PK WND 31031/1845 WSHFT 1838 SLP113 T00781033
KMLI 091752Z 27019G28KT 10SM BKN065 OVC080 09/M04 A2985 RMK AO2 PK WND 28037/1712 WSHFT 1722 SLP110 T00891044 10106 20044 56009
KMLI 091742Z 26022G30KT 10SM FEW041 SCT055 OVC070 08/M04 A2985 RMK AO2 PK WND 28037/1712 WSHFT 1722 T00831044
KMLI 091652Z 29020G30KT 10SM SCT075 10/M07 A2985 RMK AO2 PK WND 30032/1635 SLP111 T01001072
KMLI 091552Z 29019G29KT 10SM FEW070 09/M03 A2987 RMK AO2 PK WND 28029/1550 SLP116 T00941033
KMLI 091452Z 29012G19KT 10SM CLR 08/M04 A2988 RMK AO2 SLP119 T00781039 58014
KMLI 091352Z 31012G21KT 10SM CLR 06/M04 A2989 RMK AO2 SLP125 T00611044
KMLI 091252Z 30012G20KT 10SM CLR 06/M04 A2991 RMK AO2 SLP130 T00611039
KMLI 091152Z 28010KT 10SM CLR 04/M04 A2992 RMK AO2 SLP134 T00391044 10078 20039 53006
KMLI 091052Z 29011G20KT 10SM CLR 05/M05 A2991 RMK AO2 SLP130 T00501050
KMLI 090952Z AUTO 31011G20KT 10SM CLR 05/M04 A2990 RMK AO2 SLP127 T00501044
KMLI 090852Z AUTO 31014G20KT 10SM CLR 06/M04 A2990 RMK AO2 PK WND 32026/0839 SLP126 T00561044 51013